Time;durP1;ratioP1;P1;durP2;ratioP2;P2;SDS_P1;SDS_P2;PMS_P1;PMS_P2;Temp;Humidity;BMP_temperature;BMP_pressure;BME280_temperature;BME280_humidity;BME280_pressure;Samples;Min_cycle;Max_cycle;Signal;HPM_P1;HPM_P2
2023/06/15 00:01:27;;;;;;;60.05;54.30;;;;;;;15.51;100.00;100890.75;5001919;28;20045;-86
2023/06/15 00:03:55;;;;;;;59.92;54.13;;;;;;;15.38;100.00;100891.00;5006088;28;20060;-86
2023/06/15 00:06:22;;;;;;;53.95;48.65;;;;;;;15.66;100.00;100887.59;4996297;28;20141;-86
2023/06/15 00:08:49;;;;;;;54.50;49.00;;;;;;;15.60;100.00;100885.84;5009878;28;20133;-86
2023/06/15 00:11:16;;;;;;;56.83;51.25;;;;;;;15.73;100.00;100888.31;5010674;28;20050;-86
2023/06/15 00:13:43;;;;;;;56.25;50.67;;;;;;;15.67;100.00;100891.06;5011472;28;20045;-85
2023/06/15 00:16:12;;;;;;;52.53;47.03;;;;;;;15.69;100.00;100883.66;5010702;28;20132;-86
2023/06/15 00:18:40;;;;;;;52.40;47.20;;;;;;;15.68;100.00;100884.72;4992272;28;20054;-86
2023/06/15 00:21:09;;;;;;;58.97;53.25;;;;;;;16.19;100.00;100886.56;5012699;28;20046;-85
2023/06/15 00:23:36;;;;;;;56.20;45.53;;;;;;;15.93;100.00;100893.28;5008583;28;20476;-86
2023/06/15 00:26:03;;;;;;;52.00;46.85;;;;;;;15.95;100.00;100885.81;5014819;28;20137;-86
2023/06/15 00:28:30;;;;;;;56.45;50.95;;;;;;;16.06;100.00;100889.50;5004875;28;20054;-86
2023/06/15 00:30:57;;;;;;;55.13;49.53;;;;;;;16.39;100.00;100896.84;5006020;28;20075;-80
2023/06/15 00:33:24;;;;;;;59.15;53.42;;;;;;;16.48;100.00;100891.91;5011213;28;20045;-80
2023/06/15 00:35:50;;;;;;;61.63;55.30;;;;;;;16.70;100.00;100887.50;5010520;28;20137;-79
2023/06/15 00:38:19;;;;;;;64.38;58.60;;;;;;;16.71;100.00;100886.41;5011356;28;20054;-80
2023/06/15 00:40:46;;;;;;;82.95;76.28;;;;;;;16.76;100.00;100885.72;4998337;28;20528;-80
2023/06/15 00:43:13;;;;;;;60.40;54.40;;;;;;;16.85;100.00;100883.44;5004970;28;20042;-80
2023/06/15 00:45:40;;;;;;;60.72;54.83;;;;;;;16.82;100.00;100881.25;5013141;28;20046;-79
2023/06/15 00:48:07;;;;;;;66.55;60.38;;;;;;;16.72;100.00;100881.88;5011936;28;20490;-87
2023/06/15 00:50:34;;;;;;;59.90;54.08;;;;;;;16.78;100.00;100878.25;5014763;28;20041;-86
2023/06/15 00:53:05;;;;;;;83.60;77.00;;;;;;;16.79;100.00;100881.75;5014673;28;20046;-85
2023/06/15 00:55:35;;;;;;;62.13;55.65;;;;;;;16.66;100.00;100878.28;5014874;28;20064;-85
2023/06/15 00:58:05;;;;;;;59.15;53.42;;;;;;;16.31;100.00;100872.28;5011082;28;20474;-86
2023/06/15 01:00:37;;;;;;;84.93;78.15;;;;;;;15.60;100.00;100877.00;5014641;28;20407;-86
2023/06/15 01:03:06;;;;;;;62.72;56.53;;;;;;;16.04;100.00;100870.19;5014171;28;20046;-85
2023/06/15 01:05:36;;;;;;;60.33;54.13;;;;;;;16.21;100.00;100867.56;5014611;28;20046;-86
2023/06/15 01:08:05;;;;;;;66.95;60.65;;;;;;;16.20;100.00;100864.06;5011238;28;20053;-85
2023/06/15 01:10:36;;;;;;;70.88;64.63;;;;;;;16.23;100.00;100865.47;5012025;28;20077;-86
2023/06/15 01:13:07;;;;;;;57.80;51.88;;;;;;;16.18;100.00;100868.03;5011095;28;20510;-86
2023/06/15 01:15:35;;;;;;;63.47;57.47;;;;;;;16.01;100.00;100868.00;5013580;28;20399;-86
2023/06/15 01:18:03;;;;;;;55.45;49.80;;;;;;;15.92;100.00;100869.41;5014422;28;20137;-86
2023/06/15 01:20:39;;;;;;;57.65;52.13;;;;;;;15.62;100.00;100869.56;5013672;28;20048;-86
2023/06/15 01:23:22;;;;;;;59.55;53.83;;;;;;;15.65;100.00;100869.09;5014238;28;20050;-86
2023/06/15 01:26:06;;;;;;;58.67;52.78;;;;;;;15.66;100.00;100870.72;5009006;28;20137;-86
2023/06/15 01:28:34;;;;;;;60.10;54.15;;;;;;;15.76;100.00;100868.28;4994861;28;20065;-86
2023/06/15 01:31:02;;;;;;;64.45;58.35;;;;;;;15.86;100.00;100867.69;4994642;28;20047;-86
2023/06/15 01:33:45;;;;;;;56.97;51.38;;;;;;;15.88;100.00;100876.28;4998529;28;20104;-86
2023/06/15 01:36:12;;;;;;;;;;;;;;;15.92;100.00;100867.56;5000117;28;20046;-86
2023/06/15 01:38:39;;;;;;;56.72;50.60;;;;;;;15.83;100.00;100865.50;5001558;28;20016;-86
2023/06/15 01:41:09;;;;;;;59.30;53.08;;;;;;;15.72;100.00;100869.81;4999213;28;20161;-86
2023/06/15 01:43:39;;;;;;;61.38;55.50;;;;;;;15.89;100.00;100870.69;5011358;28;20533;-85
2023/06/15 01:46:07;;;;;;;61.30;55.28;;;;;;;15.82;100.00;100878.03;4995787;28;20089;-86
2023/06/15 01:48:34;;;;;;;55.05;49.67;;;;;;;15.78;100.00;100863.50;4994766;28;20469;-86
2023/06/15 01:51:03;;;;;;;57.00;51.60;;;;;;;15.69;100.00;100863.06;5003094;28;20049;-86
2023/06/15 01:53:31;;;;;;;62.53;56.40;;;;;;;15.79;100.00;100863.28;5010229;28;20129;-79
2023/06/15 01:55:59;;;;;;;59.25;53.47;;;;;;;15.66;100.00;100876.06;5009304;28;20046;-79
2023/06/15 01:58:27;;;;;;;69.35;62.88;;;;;;;15.78;100.00;100860.81;5007898;28;20042;-79
2023/06/15 02:00:54;;;;;;;59.42;53.55;;;;;;;15.56;100.00;100855.25;5012230;28;20060;-86
2023/06/15 02:03:22;;;;;;;64.05;57.70;;;;;;;15.60;100.00;100866.31;5012912;28;20049;-86
2023/06/15 02:05:48;;;;;;;72.78;66.25;;;;;;;15.49;100.00;100870.63;5011251;28;20049;-85
2023/06/15 02:08:15;;;;;;;63.72;57.78;;;;;;;15.47;100.00;100868.19;5013936;28;20144;-86
2023/06/15 02:10:43;;;;;;;62.72;56.60;;;;;;;15.46;100.00;100863.06;5010010;28;20045;-85
2023/06/15 02:13:12;;;;;;;56.78;51.17;;;;;;;15.42;100.00;100868.06;5002565;28;20093;-85
2023/06/15 02:15:41;;;;;;;57.78;51.97;;;;;;;15.15;100.00;100856.22;5003571;28;20146;-79
2023/06/15 02:18:12;;;;;;;60.65;54.75;;;;;;;15.24;100.00;100862.84;5003633;28;20085;-86
2023/06/15 02:20:40;;;;;;;54.35;49.03;;;;;;;15.38;100.00;100879.50;4994128;28;20437;-86
2023/06/15 02:23:07;;;;;;;54.92;49.42;;;;;;;15.16;100.00;100876.56;5001373;28;20050;-85
2023/06/15 02:25:35;;;;;;;58.95;53.17;;;;;;;14.86;100.00;100872.13;5001438;28;20410;-79
2023/06/15 02:28:01;;;;;;;63.95;57.85;;;;;;;14.97;100.00;100878.53;5004051;28;20069;-80
2023/06/15 02:30:28;;;;;;;59.38;53.28;;;;;;;14.98;100.00;100880.19;5010339;28;20141;-79
2023/06/15 02:33:00;;;;;;;55.58;49.95;;;;;;;15.00;100.00;100876.19;5001307;28;20096;-79
2023/06/15 02:35:27;;;;;;;53.28;47.95;;;;;;;15.07;100.00;100884.94;5002705;28;20074;-79
2023/06/15 02:37:54;;;;;;;50.47;45.75;;;;;;;15.00;100.00;100875.38;5005076;28;20129;-79
2023/06/15 02:40:21;;;;;;;49.53;44.53;;;;;;;15.07;100.00;100879.59;5008196;28;20046;-79
2023/06/15 02:42:48;;;;;;;49.35;44.25;;;;;;;14.97;100.00;100878.53;5008279;28;20078;-79
2023/06/15 02:45:15;;;;;;;47.88;43.08;;;;;;;14.91;100.00;100874.09;5009985;28;20045;-79
2023/06/15 02:47:43;;;;;;;50.55;45.58;;;;;;;14.71;100.00;100875.25;5009341;28;20046;-79
2023/06/15 02:50:12;;;;;;;47.83;42.72;;;;;;;14.82;100.00;100881.66;5008579;28;20494;-79
2023/06/15 02:52:40;;;;;;;49.30;44.30;;;;;;;14.94;100.00;100874.44;5008489;28;20136;-79
2023/06/15 02:55:08;;;;;;;50.63;45.22;;;;;;;15.04;100.00;100872.03;5008690;28;20058;-86
2023/06/15 02:57:36;;;;;;;50.25;45.25;;;;;;;15.11;100.00;100870.06;4994864;28;20073;-86
2023/06/15 03:00:13;;;;;;;46.28;41.83;;;;;;;14.88;100.00;100872.69;5009385;28;20566;-86
2023/06/15 03:02:44;;;;;;;47.03;42.15;;;;;;;14.27;100.00;100873.78;4997151;28;20053;-86
2023/06/15 03:05:13;;;;;;;47.28;42.67;;;;;;;14.71;100.00;100867.22;5010556;28;20050;-86
2023/06/15 03:07:41;;;;;;;50.40;45.28;;;;;;;15.03;100.00;100878.41;5004311;28;20049;-86
2023/06/15 03:10:09;;;;;;;50.40;45.72;;;;;;;15.22;100.00;100871.13;5007737;28;20078;-79
2023/06/15 03:12:35;;;;;;;53.00;48.10;;;;;;;15.24;100.00;100871.69;4999998;28;20053;-79
2023/06/15 03:15:03;;;;;;;56.45;51.47;;;;;;;15.26;100.00;100880.28;5000819;28;20078;-79
2023/06/15 03:17:32;;;;;;;55.00;49.83;;;;;;;15.21;100.00;100866.78;4992282;28;20050;-79
2023/06/15 03:20:00;;;;;;;51.30;46.13;;;;;;;15.24;100.00;100878.91;4996759;28;20486;-79
2023/06/15 03:22:28;;;;;;;54.30;49.40;;;;;;;15.28;100.00;100869.34;4993963;28;20146;-79
2023/06/15 03:24:55;;;;;;;51.95;47.15;;;;;;;15.37;100.00;100873.31;5002551;28;20050;-79
2023/06/15 03:27:22;;;;;;;49.20;44.70;;;;;;;15.44;100.00;100879.38;5009836;28;20053;-79
2023/06/15 03:29:51;;;;;;;50.75;46.08;;;;;;;15.12;100.00;100882.38;5008342;28;20060;-79
2023/06/15 03:32:18;;;;;;;55.67;50.33;;;;;;;15.18;100.00;100882.50;5007395;28;20042;-79
2023/06/15 03:34:45;;;;;;;51.65;46.95;;;;;;;15.25;100.00;100881.34;5009127;28;20068;-79
2023/06/15 03:37:15;;;;;;;49.35;44.55;;;;;;;14.98;100.00;100880.19;5006243;28;20076;-79
2023/06/15 03:39:43;;;;;;;54.10;48.30;;;;;;;15.14;100.00;100874.13;5009414;28;20052;-79
2023/06/15 03:42:10;;;;;;;53.10;48.15;;;;;;;15.18;100.00;100869.13;5007972;28;20052;-79
2023/06/15 03:44:37;;;;;;;55.25;50.03;;;;;;;15.45;100.00;100874.81;5007746;28;20050;-79
2023/06/15 03:47:05;;;;;;;51.75;46.63;;;;;;;15.44;100.00;100867.84;5008181;28;20100;-79
2023/06/15 03:49:32;;;;;;;53.45;48.38;;;;;;;15.63;100.00;100873.88;5008535;28;20095;-79
2023/06/15 03:51:59;;;;;;;54.28;49.25;;;;;;;15.95;100.00;100872.44;5009220;28;20049;-79
2023/06/15 03:54:26;;;;;;;54.85;50.15;;;;;;;15.88;100.00;100869.06;5007558;28;20125;-79
2023/06/15 03:56:57;;;;;;;53.90;48.72;;;;;;;16.03;100.00;100871.22;5005552;28;20046;-79
2023/06/15 03:59:23;;;;;;;55.50;50.30;;;;;;;16.21;100.00;100867.56;5006821;28;20054;-79
2023/06/15 04:01:50;;;;;;;52.17;47.50;;;;;;;16.38;100.00;100873.78;5008638;28;20058;-79
2023/06/15 04:04:17;;;;;;;57.30;52.17;;;;;;;16.43;100.00;100881.91;5007262;28;20054;-79
2023/06/15 04:06:46;;;;;;;59.10;53.72;;;;;;;16.54;100.00;100872.19;5007043;28;20044;-79
2023/06/15 04:09:13;;;;;;;62.72;57.53;;;;;;;16.71;100.00;100880.25;5010543;28;20100;-79
2023/06/15 04:11:40;;;;;;;64.45;59.13;;;;;;;16.80;100.00;100865.41;5005971;28;20152;-87
2023/06/15 04:14:08;;;;;;;59.53;54.10;;;;;;;16.98;100.00;100876.97;5010244;28;20052;-86
2023/06/15 04:16:36;;;;;;;63.60;57.92;;;;;;;16.95;100.00;100867.53;5006470;28;20058;-86
2023/06/15 04:19:03;;;;;;;66.15;60.70;;;;;;;17.19;100.00;100873.53;5011233;28;20414;-86
2023/06/15 04:21:30;;;;;;;57.25;52.25;;;;;;;17.37;100.00;100870.56;5011680;28;20050;-86
2023/06/15 04:23:58;;;;;;;55.47;50.47;;;;;;;17.38;100.00;100868.69;5011619;28;20049;-87
2023/06/15 04:26:26;;;;;;;58.83;53.55;;;;;;;17.46;100.00;100859.38;5011516;28;20038;-87
2023/06/15 04:28:53;;;;;;;60.33;55.13;;;;;;;17.57;100.00;100866.53;5009438;28;20046;-87
2023/06/15 04:31:21;;;;;;;56.80;51.90;;;;;;;17.59;100.00;100875.97;5006961;28;20041;-86
2023/06/15 04:33:48;;;;;;;60.55;55.35;;;;;;;17.71;100.00;100867.78;5003729;28;20072;-86
2023/06/15 04:36:16;;;;;;;58.50;53.45;;;;;;;17.82;100.00;100866.06;5005960;28;20043;-86
2023/06/15 04:38:46;;;;;;;57.10;52.33;;;;;;;17.84;100.00;100870.13;5011401;28;20047;-86
2023/06/15 04:41:14;;;;;;;60.55;55.03;;;;;;;18.12;100.00;100870.97;5010220;28;20051;-87
2023/06/15 04:43:42;;;;;;;57.47;52.22;;;;;;;18.22;100.00;100867.59;5009821;28;20407;-79
2023/06/15 04:46:11;;;;;;;60.90;55.75;;;;;;;18.42;100.00;100866.97;5011205;28;20328;-86
2023/06/15 04:48:43;;;;;;;62.28;56.88;;;;;;;18.56;100.00;100875.47;5007117;28;20061;-87
2023/06/15 04:51:10;;;;;;;;;;;;;;;18.71;100.00;100867.53;5009956;28;20045;-86
2023/06/15 04:53:37;;;;;;;59.90;54.78;;;;;;;18.79;100.00;100877.84;5009220;28;19921;-86
2023/06/15 04:56:04;;;;;;;58.10;53.22;;;;;;;18.97;100.00;100876.63;5010016;28;20429;-86
2023/06/15 04:58:31;;;;;;;54.92;50.35;;;;;;;18.98;100.00;100886.34;5006533;28;20445;-87
2023/06/15 05:00:58;;;;;;;57.75;52.88;;;;;;;19.28;100.00;100874.16;5002300;28;20434;-86
2023/06/15 05:03:25;;;;;;;56.13;51.40;;;;;;;19.47;100.00;100874.53;5009235;28;20525;-86
2023/06/15 05:06:00;;;;;;;55.48;50.85;;;;;;;19.70;100.00;100868.78;4893233;28;10000682;-86
2023/06/15 05:08:27;;;;;;;58.00;53.25;;;;;;;19.66;100.00;100873.03;5002716;28;20403;-86
2023/06/15 05:10:55;;;;;;;58.72;54.05;;;;;;;19.88;100.00;100878.28;5009186;28;20115;-86
2023/06/15 05:13:22;;;;;;;54.58;50.08;;;;;;;20.14;100.00;100874.56;5008809;28;20053;-87
2023/06/15 05:15:49;;;;;;;56.63;52.10;;;;;;;20.28;100.00;100872.19;5006241;28;20157;-87
2023/06/15 05:18:16;;;;;;;56.78;52.22;;;;;;;20.57;100.00;100872.53;5004143;28;20108;-87
2023/06/15 05:20:43;;;;;;;56.13;51.38;;;;;;;20.78;100.00;100877.91;5002320;28;20050;-87
2023/06/15 05:23:11;;;;;;;52.97;48.97;;;;;;;20.88;100.00;100875.22;5006048;28;20038;-80
2023/06/15 05:25:38;;;;;;;49.92;45.88;;;;;;;20.94;100.00;100870.66;5006574;28;20156;-87
2023/06/15 05:28:06;;;;;;;50.10;46.40;;;;;;;21.23;100.00;100874.34;5006218;28;20061;-87
2023/06/15 05:30:33;;;;;;;48.90;44.90;;;;;;;21.38;100.00;100875.44;5007772;28;20050;-87
2023/06/15 05:33:00;;;;;;;48.92;45.05;;;;;;;21.52;100.00;100881.09;4997294;28;20133;-80
2023/06/15 05:35:27;;;;;;;48.20;44.20;;;;;;;21.90;100.00;100890.41;5005759;28;20046;-87
2023/06/15 05:37:54;;;;;;;44.42;40.75;;;;;;;21.87;100.00;100880.94;5006676;28;20042;-86
2023/06/15 05:40:22;;;;;;;40.63;37.08;;;;;;;21.96;100.00;100883.88;5006525;28;20238;-88
2023/06/15 05:42:49;;;;;;;41.95;38.05;;;;;;;22.00;100.00;100867.91;4998190;28;20499;-87
2023/06/15 05:45:18;;;;;;;40.53;36.72;;;;;;;22.18;100.00;100862.72;5007161;28;20050;-86
2023/06/15 05:47:44;;;;;;;42.03;38.03;;;;;;;22.34;100.00;100868.03;5009438;28;20105;-87
2023/06/15 05:50:11;;;;;;;42.00;38.08;;;;;;;22.46;100.00;100859.56;5006037;28;20050;-87
2023/06/15 05:52:38;;;;;;;42.05;37.90;;;;;;;22.80;100.00;100867.66;5000265;28;20129;-86
2023/06/15 05:55:07;;;;;;;41.20;37.25;;;;;;;23.19;100.00;100864.09;5005938;28;20149;-87
2023/06/15 05:57:35;;;;;;;39.63;35.90;;;;;;;23.40;100.00;100876.31;5006210;28;20045;-86
2023/06/15 06:00:03;;;;;;;37.47;33.55;;;;;;;23.65;100.00;100856.22;5007711;28;20057;-87
2023/06/15 06:02:31;;;;;;;37.00;32.33;;;;;;;23.86;100.00;100864.94;4999682;28;20050;-86
2023/06/15 06:04:58;;;;;;;33.22;27.08;;;;;;;24.13;100.00;100867.03;5001687;28;20053;-87
2023/06/15 06:07:25;;;;;;;28.50;25.67;;;;;;;24.36;100.00;100857.19;5007432;28;20093;-87
2023/06/15 06:09:52;;;;;;;23.77;22.08;;;;;;;24.54;100.00;100855.59;5004156;28;20064;-85
2023/06/15 06:12:19;;;;;;;24.17;22.38;;;;;;;24.72;100.00;100853.13;5006186;28;20088;-86
2023/06/15 06:14:47;;;;;;;24.35;22.25;;;;;;;24.81;100.00;100854.03;5003750;28;20052;-86
2023/06/15 06:17:14;;;;;;;24.02;22.02;;;;;;;24.98;100.00;100858.94;5005460;28;20050;-86
2023/06/15 08:23:29;;;;;;;24.20;22.23;;;;;;;27.83;100.00;100824.13;6078760;23;20030;-86
2023/06/15 08:25:56;;;;;;;24.67;22.65;;;;;;;27.86;100.00;100811.78;6088991;23;20345;-79
2023/06/15 08:28:23;;;;;;;23.92;22.02;;;;;;;27.94;100.00;100802.81;6091912;23;20098;-86
2023/06/15 08:30:50;;;;;;;23.00;21.10;;;;;;;27.89;100.00;100811.13;6095188;23;20061;-88
2023/06/15 08:33:18;;;;;;;23.05;20.95;;;;;;;28.24;100.00;100814.69;6094859;23;20029;-79
2023/06/15 08:35:45;;;;;;;22.38;20.67;;;;;;;26.92;100.00;100816.59;6094514;23;20026;-88
2023/06/15 08:38:12;;;;;;;22.70;21.20;;;;;;;27.26;100.00;100809.72;6095371;23;20510;-79
2023/06/15 08:40:40;;;;;;;23.05;21.20;;;;;;;27.89;100.00;100816.59;6095381;23;20029;-88
2023/06/15 08:43:12;;;;;;;23.88;21.98;;;;;;;28.06;100.00;100824.00;6095538;23;20038;-88
2023/06/15 08:45:41;;;;;;;22.25;20.55;;;;;;;27.96;100.00;100818.84;6096135;23;20027;-87
2023/06/15 08:48:11;;;;;;;23.55;21.60;;;;;;;27.82;100.00;100817.09;6096315;23;20030;-87
2023/06/15 08:50:41;;;;;;;23.55;21.75;;;;;;;27.96;100.00;100806.03;6095928;23;20022;-78
2023/06/15 08:53:17;;;;;;;21.88;20.27;;;;;;;28.06;100.00;100811.16;6095024;23;20093;-88
2023/06/15 08:55:46;;;;;;;20.77;19.27;;;;;;;27.98;100.00;100808.41;6095515;23;20468;-89
2023/06/15 08:58:14;;;;;;;22.77;21.00;;;;;;;28.46;100.00;100810.97;6095386;23;20029;-89
2023/06/15 09:00:41;;;;;;;21.88;20.10;;;;;;;28.22;100.00;100808.72;6096440;23;20436;-88
2023/06/15 09:03:09;;;;;;;22.02;20.23;;;;;;;28.21;100.00;100804.41;6094506;23;20030;-78
2023/06/15 09:06:13;;;;;;;23.25;21.30;;;;;;;28.61;100.00;100803.41;6095367;23;20018;-87
2023/06/15 09:08:56;;;;;;;22.73;20.92;;;;;;;28.47;100.00;100798.13;6096154;23;20025;-87
2023/06/15 09:11:24;;;;;;;24.08;22.17;;;;;;;28.48;100.00;100797.00;6094954;23;20029;-79
2023/06/15 09:13:51;;;;;;;25.80;23.80;;;;;;;28.25;100.00;100805.34;6094888;23;20026;-79
2023/06/15 09:16:20;;;;;;;25.40;23.38;;;;;;;27.86;100.00;100793.47;6095161;23;20018;-79
2023/06/15 09:18:49;;;;;;;26.45;24.52;;;;;;;28.19;100.00;100801.19;6095372;23;20019;-79
2023/06/15 09:21:23;;;;;;;25.00;23.30;;;;;;;28.17;100.00;100802.63;6095219;23;20023;-87
2023/06/15 09:23:50;;;;;;;24.48;22.48;;;;;;;28.27;100.00;100802.31;6099326;23;20028;-86
2023/06/15 09:26:27;;;;;;;25.60;23.90;;;;;;;27.87;100.00;100794.31;6124420;23;20018;-79
2023/06/15 09:28:55;;;;;;;24.77;23.00;;;;;;;27.83;100.00;100788.66;6124680;23;20022;-79
2023/06/15 09:31:31;;;;;;;23.30;21.65;;;;;;;28.41;100.00;100783.81;6123064;23;20022;-79
2023/06/15 09:34:06;;;;;;;24.00;22.30;;;;;;;28.52;100.00;100781.56;6123527;23;20345;-78
2023/06/15 09:36:38;;;;;;;24.48;22.58;;;;;;;28.37;100.00;100782.84;6122968;23;20113;-79
2023/06/15 09:39:05;;;;;;;22.77;20.92;;;;;;;28.70;100.00;100774.13;6123106;23;20028;-79
2023/06/15 09:41:34;;;;;;;26.08;24.23;;;;;;;28.79;100.00;100779.56;6123470;23;20098;-78
2023/06/15 09:44:09;;;;;;;24.50;22.70;;;;;;;29.11;100.00;100778.16;6123133;23;20400;-78
2023/06/15 09:46:38;;;;;;;22.92;21.23;;;;;;;29.14;100.00;100778.31;6123653;23;20105;-78
2023/06/15 09:49:21;;;;;;;24.63;22.73;;;;;;;29.15;100.00;100773.63;6123654;23;20030;-78
2023/06/15 09:51:50;;;;;;;22.10;20.70;;;;;;;29.05;100.00;100763.88;6124909;23;20085;-88
2023/06/15 09:54:29;;;;;;;24.00;22.30;;;;;;;29.51;100.00;100767.63;6124863;23;20022;-89
2023/06/15 09:57:05;;;;;;;22.52;20.92;;;;;;;29.35;100.00;100770.16;6125415;23;20021;-88
2023/06/15 09:59:37;;;;;;;24.50;22.73;;;;;;;29.66;97.42;100767.06;6125972;23;20057;-86
2023/06/15 10:02:21;;;;;;;24.75;23.05;;;;;;;29.55;99.53;100760.34;6125286;23;20022;-90
2023/06/15 10:04:56;;;;;;;23.73;22.23;;;;;;;29.34;100.00;100754.06;6125426;23;20026;-87
2023/06/15 10:07:25;;;;;;;24.17;22.58;;;;;;;28.93;100.00;100758.28;6124664;23;20102;-88
2023/06/15 10:10:02;;;;;;;27.27;25.38;;;;;;;28.20;100.00;100750.94;6122461;23;20077;-79
2023/06/15 10:12:47;;;;;;;24.88;23.27;;;;;;;28.93;100.00;100753.63;6125269;23;20025;-89
2023/06/15 10:15:18;;;;;;;26.38;24.63;;;;;;;29.25;100.00;100751.38;6124957;23;20414;-89
2023/06/15 10:18:03;;;;;;;23.17;21.35;;;;;;;29.53;99.06;100739.91;6124584;23;20098;-88
2023/06/15 10:20:35;;;;;;;23.40;21.67;;;;;;;29.54;100.00;100747.00;6123374;23;20468;-78
2023/06/15 10:23:04;;;;;;;23.50;21.73;;;;;;;29.61;98.19;100739.88;6122408;23;20545;-79
2023/06/15 10:25:55;;;;;;;25.05;23.40;;;;;;;29.11;100.00;100748.06;6122378;23;20026;-79
2023/06/15 10:28:25;;;;;;;24.02;22.23;;;;;;;29.64;100.00;100738.41;6124034;23;20444;-88
2023/06/15 10:31:01;;;;;;;25.88;23.95;;;;;;;29.77;95.85;100739.28;6124081;23;20022;-86
2023/06/15 10:33:48;;;;;;;25.63;24.08;;;;;;;29.94;93.70;100741.88;6124070;23;20026;-86
2023/06/15 10:36:50;;;;;;;24.20;22.42;;;;;;;29.55;99.30;100732.97;6123429;23;20020;-87
2023/06/15 10:39:38;;;;;;;24.45;22.95;;;;;;;29.87;100.00;100717.78;6034262;23;20058;-87
2023/06/15 10:42:42;;;;;;;26.40;24.77;;;;;;;29.85;98.94;100716.50;6117903;23;20041;-88
2023/06/15 10:45:34;;;;;;;24.75;23.23;;;;;;;30.19;90.24;100714.56;6123434;23;20018;-78
2023/06/15 10:48:02;;;;;;;23.40;21.77;;;;;;;29.71;88.03;100718.72;6122494;23;20022;-78
2023/06/15 10:53:49;;;;;;;22.80;21.27;;;;;;;29.34;94.47;100719.28;6122348;23;20045;-87
2023/06/15 10:56:18;;;;;;;23.23;21.42;;;;;;;29.41;92.51;100702.34;6125810;23;20183;-89
2023/06/15 10:59:04;;;;;;;24.45;22.75;;;;;;;29.09;99.77;100701.13;6125355;23;20018;-88
2023/06/15 11:01:33;;;;;;;24.35;22.77;;;;;;;28.82;100.00;100700.44;6124817;23;20018;-88
2023/06/15 11:04:32;;;;;;;25.77;24.27;;;;;;;29.47;99.48;100697.47;6125010;23;20053;-88
2023/06/15 11:07:03;;;;;;;24.98;22.98;;;;;;;28.29;100.00;100693.53;6127289;23;20022;-88
2023/06/15 11:09:56;;;;;;;25.57;23.87;;;;;;;28.18;100.00;100695.84;6127305;23;20060;-89
2023/06/15 11:13:01;;;;;;;22.00;20.23;;;;;;;29.79;100.00;100679.53;6126965;23;20022;-88
2023/06/15 11:15:33;;;;;;;23.35;21.75;;;;;;;29.36;100.00;100676.00;6126983;23;20436;-90
2023/06/15 11:18:19;;;;;;;22.25;20.85;;;;;;;28.76;100.00;100690.84;6127741;23;20026;-89
2023/06/15 11:21:02;;;;;;;23.58;21.95;;;;;;;29.00;100.00;100687.47;6128246;23;20022;-80
2023/06/15 11:23:32;;;;;;;22.85;21.15;;;;;;;29.65;88.50;100674.34;6126658;23;20018;-87
2023/06/15 11:26:01;;;;;;;23.33;21.60;;;;;;;29.93;82.44;100671.03;6126086;23;20101;-86
2023/06/15 11:28:34;;;;;;;26.00;24.20;;;;;;;29.33;98.76;100675.88;6126518;23;20033;-88
2023/06/15 11:31:28;;;;;;;22.45;20.75;;;;;;;30.16;76.83;100672.22;6126289;23;20562;-87
2023/06/15 11:33:57;;;;;;;22.27;20.67;;;;;;;30.45;66.43;100670.47;6126813;23;20025;-88
2023/06/15 11:36:24;;;;;;;23.90;22.30;;;;;;;30.08;80.10;100668.44;6127089;23;20081;-88
2023/06/15 11:39:18;;;;;;;23.85;22.25;;;;;;;30.91;75.45;100666.50;6127878;23;20045;-88
2023/06/15 11:41:53;;;;;;;22.42;20.92;;;;;;;31.24;68.32;100662.78;6118453;23;20375;-87
2023/06/15 11:44:52;;;;;;;22.88;21.15;;;;;;;30.59;73.27;100662.69;6126685;23;20072;-88
2023/06/15 11:47:24;;;;;;;22.08;20.23;;;;;;;31.07;67.82;100663.81;6126745;23;20021;-86
2023/06/15 11:53:24;;;;;;;21.70;20.10;;;;;;;31.19;61.23;100658.31;6126911;23;20021;-88
2023/06/15 11:56:01;;;;;;;22.98;21.48;;;;;;;31.29;67.37;100659.78;6125634;23;20041;-79
2023/06/15 11:58:29;;;;;;;24.20;22.60;;;;;;;31.26;60.97;100646.78;6125117;23;20022;-78
2023/06/15 12:01:23;;;;;;;34.33;32.33;;;;;;;30.98;62.60;100647.50;6124724;23;20356;-88
2023/06/15 12:03:57;;;;;;;23.60;21.90;;;;;;;31.14;68.72;100639.38;6125949;23;20026;-89
2023/06/15 12:06:24;;;;;;;24.98;23.17;;;;;;;31.14;75.24;100636.63;6125547;23;20018;-89
2023/06/15 12:09:12;;;;;;;24.05;22.48;;;;;;;30.99;81.43;100640.09;6125412;23;20026;-79
2023/06/15 12:11:45;;;;;;;21.63;20.13;;;;;;;31.02;71.22;100636.66;6125067;23;20482;-78
2023/06/15 12:14:16;;;;;;;22.85;21.05;;;;;;;30.80;74.13;100637.94;6125360;23;20076;-83
2023/06/15 12:16:49;;;;;;;22.38;20.88;;;;;;;31.33;67.59;100632.47;6124778;23;20029;-78
2023/06/15 12:19:16;;;;;;;21.63;20.23;;;;;;;30.78;67.50;100635.56;6123573;23;20534;-79
2023/06/15 12:21:44;;;;;;;22.27;20.88;;;;;;;30.63;64.97;100635.44;6124676;23;20359;-78
2023/06/15 12:24:17;;;;;;;21.40;19.70;;;;;;;30.70;64.92;100641.91;6123430;23;20375;-78
2023/06/15 12:26:50;;;;;;;19.77;18.38;;;;;;;30.62;62.55;100634.59;6123494;23;20368;-78
2023/06/15 12:29:18;;;;;;;21.15;19.70;;;;;;;30.02;72.60;100625.22;6123403;23;20026;-78
2023/06/15 12:31:48;;;;;;;21.67;19.98;;;;;;;29.99;74.74;100628.63;6123629;23;20022;-78
2023/06/15 12:34:21;;;;;;;22.65;20.95;;;;;;;29.64;68.83;100618.81;6123237;23;20022;-78
2023/06/15 12:37:11;;;;;;;20.45;19.00;;;;;;;29.65;73.50;100617.69;6123785;23;20022;-78
2023/06/15 12:39:42;;;;;;;21.90;20.20;;;;;;;30.05;75.18;100617.09;6124000;23;20044;-77
2023/06/15 12:42:09;;;;;;;21.00;19.60;;;;;;;29.86;74.47;100606.66;6125068;23;20022;-78
2023/06/15 12:44:36;;;;;;;21.25;19.67;;;;;;;30.06;75.31;100613.22;6124696;23;20029;-86
2023/06/15 12:47:03;;;;;;;21.02;19.58;;;;;;;29.95;72.51;100605.78;6125137;23;20018;-79
2023/06/15 12:49:44;;;;;;;20.77;19.17;;;;;;;29.60;83.91;100609.66;6123659;23;20475;-78
2023/06/15 12:52:14;;;;;;;21.40;19.80;;;;;;;29.82;84.07;100602.22;6123475;23;20053;-78
2023/06/15 12:54:42;;;;;;;21.20;19.60;;;;;;;29.50;85.81;100601.84;6124636;23;20084;-86
2023/06/15 12:57:09;;;;;;;21.95;20.40;;;;;;;29.50;88.26;100604.59;6123914;23;20029;-78
2023/06/15 12:59:37;;;;;;;20.80;19.30;;;;;;;29.58;86.61;100592.78;6123281;23;20030;-85
2023/06/15 13:02:05;;;;;;;21.00;19.40;;;;;;;29.51;88.75;100592.53;6124378;23;20018;-78
2023/06/15 13:04:33;;;;;;;21.88;20.10;;;;;;;29.49;88.08;100597.53;6123731;23;20022;-78
2023/06/15 13:07:11;;;;;;;19.92;18.52;;;;;;;29.29;94.05;100590.16;6122923;23;20026;-78
2023/06/15 13:09:39;;;;;;;20.95;19.17;;;;;;;29.19;95.95;100596.84;6123139;23;20475;-79
2023/06/15 13:12:08;;;;;;;21.35;19.85;;;;;;;29.20;99.20;100596.50;6122800;23;20040;-78
2023/06/15 13:14:35;;;;;;;22.20;20.80;;;;;;;29.05;100.00;100591.66;6123391;23;20476;-78
2023/06/15 13:17:02;;;;;;;20.25;18.67;;;;;;;28.25;100.00;100613.41;6122598;23;20022;-78
2023/06/15 13:19:29;;;;;;;20.90;19.25;;;;;;;27.84;100.00;100617.56;6122713;23;20026;-78
2023/06/15 13:22:01;;;;;;;21.35;19.83;;;;;;;27.56;100.00;100611.63;6122671;23;20018;-78
2023/06/15 13:24:28;;;;;;;22.55;20.95;;;;;;;27.38;100.00;100608.13;6119875;23;20022;-78
2023/06/15 13:26:57;;;;;;;22.40;20.90;;;;;;;27.11;100.00;100611.94;6121428;23;20022;-78
2023/06/15 13:29:26;;;;;;;21.85;20.05;;;;;;;26.84;100.00;100607.56;6121117;23;20025;-78
2023/06/15 13:32:09;;;;;;;21.65;20.15;;;;;;;26.69;100.00;100606.91;6121397;23;20030;-78